sensor_id;sensor_type;location;lat;lon;timestamp;P1;durP1;ratioP1;P2;durP2;ratioP2
15776;SDS011;7989;51.198;6.676;2024-01-07T00:00:42;60.20;;;43.38;;
15776;SDS011;7989;51.198;6.676;2024-01-07T00:03:10;55.60;;;42.60;;
15776;SDS011;7989;51.198;6.676;2024-01-07T00:05:37;53.80;;;42.42;;
15776;SDS011;7989;51.198;6.676;2024-01-07T00:08:04;54.17;;;39.85;;
15776;SDS011;7989;51.198;6.676;2024-01-07T00:10:31;62.83;;;42.80;;
15776;SDS011;7989;51.198;6.676;2024-01-07T00:12:58;52.20;;;41.22;;
15776;SDS011;7989;51.198;6.676;2024-01-07T00:15:25;57.35;;;40.80;;
15776;SDS011;7989;51.198;6.676;2024-01-07T00:17:52;48.30;;;37.22;;
15776;SDS011;7989;51.198;6.676;2024-01-07T00:20:20;57.30;;;40.75;;
15776;SDS011;7989;51.198;6.676;2024-01-07T00:22:47;51.17;;;37.03;;
15776;SDS011;7989;51.198;6.676;2024-01-07T00:25:14;53.30;;;37.42;;
15776;SDS011;7989;51.198;6.676;2024-01-07T00:27:41;48.15;;;36.80;;
15776;SDS011;7989;51.198;6.676;2024-01-07T00:30:08;46.33;;;33.58;;
15776;SDS011;7989;51.198;6.676;2024-01-07T00:32:35;43.30;;;34.50;;
15776;SDS011;7989;51.198;6.676;2024-01-07T00:35:02;47.47;;;35.95;;
15776;SDS011;7989;51.198;6.676;2024-01-07T00:37:30;39.50;;;32.50;;
15776;SDS011;7989;51.198;6.676;2024-01-07T00:40:00;44.15;;;33.55;;
15776;SDS011;7989;51.198;6.676;2024-01-07T00:42:26;38.80;;;31.90;;
15776;SDS011;7989;51.198;6.676;2024-01-07T00:44:53;42.63;;;32.72;;
15776;SDS011;7989;51.198;6.676;2024-01-07T00:47:20;37.75;;;31.20;;
15776;SDS011;7989;51.198;6.676;2024-01-07T00:49:47;35.30;;;30.90;;
15776;SDS011;7989;51.198;6.676;2024-01-07T00:52:14;37.08;;;28.50;;
15776;SDS011;7989;51.198;6.676;2024-01-07T00:54:42;37.10;;;33.03;;
15776;SDS011;7989;51.198;6.676;2024-01-07T00:57:10;32.13;;;27.55;;
15776;SDS011;7989;51.198;6.676;2024-01-07T00:59:37;32.22;;;27.75;;
15776;SDS011;7989;51.198;6.676;2024-01-07T01:02:04;32.20;;;28.55;;
15776;SDS011;7989;51.198;6.676;2024-01-07T01:04:31;28.80;;;25.58;;
15776;SDS011;7989;51.198;6.676;2024-01-07T01:06:57;31.20;;;27.77;;
15776;SDS011;7989;51.198;6.676;2024-01-07T01:09:24;30.05;;;26.80;;
15776;SDS011;7989;51.198;6.676;2024-01-07T01:11:54;29.67;;;26.63;;
15776;SDS011;7989;51.198;6.676;2024-01-07T01:14:21;31.65;;;28.25;;
15776;SDS011;7989;51.198;6.676;2024-01-07T01:16:48;30.13;;;26.98;;
15776;SDS011;7989;51.198;6.676;2024-01-07T01:19:15;31.33;;;26.58;;
15776;SDS011;7989;51.198;6.676;2024-01-07T01:21:42;29.80;;;26.80;;
15776;SDS011;7989;51.198;6.676;2024-01-07T01:24:09;30.42;;;26.63;;
15776;SDS011;7989;51.198;6.676;2024-01-07T01:26:35;29.50;;;26.42;;
15776;SDS011;7989;51.198;6.676;2024-01-07T01:29:05;27.60;;;24.80;;
15776;SDS011;7989;51.198;6.676;2024-01-07T01:31:32;29.45;;;26.40;;
15776;SDS011;7989;51.198;6.676;2024-01-07T01:33:59;29.67;;;26.63;;
15776;SDS011;7989;51.198;6.676;2024-01-07T01:36:26;30.17;;;27.00;;
15776;SDS011;7989;51.198;6.676;2024-01-07T01:38:53;29.75;;;26.48;;
15776;SDS011;7989;51.198;6.676;2024-01-07T01:41:20;28.67;;;25.77;;
15776;SDS011;7989;51.198;6.676;2024-01-07T01:43:46;28.45;;;25.55;;
15776;SDS011;7989;51.198;6.676;2024-01-07T01:46:14;30.20;;;27.15;;
15776;SDS011;7989;51.198;6.676;2024-01-07T01:48:41;30.02;;;26.90;;
15776;SDS011;7989;51.198;6.676;2024-01-07T01:51:09;31.15;;;27.75;;
15776;SDS011;7989;51.198;6.676;2024-01-07T01:53:36;30.55;;;27.60;;
15776;SDS011;7989;51.198;6.676;2024-01-07T01:56:04;29.58;;;26.55;;
15776;SDS011;7989;51.198;6.676;2024-01-07T01:58:32;34.55;;;30.80;;
15776;SDS011;7989;51.198;6.676;2024-01-07T02:00:59;32.85;;;29.48;;
15776;SDS011;7989;51.198;6.676;2024-01-07T02:03:27;32.25;;;28.90;;
15776;SDS011;7989;51.198;6.676;2024-01-07T02:05:54;30.27;;;27.20;;
15776;SDS011;7989;51.198;6.676;2024-01-07T02:08:22;25.73;;;23.23;;
15776;SDS011;7989;51.198;6.676;2024-01-07T02:10:49;25.88;;;23.42;;
15776;SDS011;7989;51.198;6.676;2024-01-07T02:13:16;26.63;;;23.92;;
15776;SDS011;7989;51.198;6.676;2024-01-07T02:15:43;25.38;;;22.90;;
15776;SDS011;7989;51.198;6.676;2024-01-07T02:18:09;24.02;;;21.80;;
15776;SDS011;7989;51.198;6.676;2024-01-07T02:20:38;26.38;;;23.75;;
15776;SDS011;7989;51.198;6.676;2024-01-07T02:23:04;26.25;;;23.75;;
15776;SDS011;7989;51.198;6.676;2024-01-07T02:25:35;27.13;;;24.38;;
15776;SDS011;7989;51.198;6.676;2024-01-07T02:28:03;25.65;;;23.17;;
15776;SDS011;7989;51.198;6.676;2024-01-07T02:30:30;26.23;;;23.63;;
15776;SDS011;7989;51.198;6.676;2024-01-07T02:33:00;26.13;;;23.48;;
15776;SDS011;7989;51.198;6.676;2024-01-07T02:35:27;23.90;;;21.65;;
15776;SDS011;7989;51.198;6.676;2024-01-07T02:37:54;24.58;;;22.10;;
15776;SDS011;7989;51.198;6.676;2024-01-07T02:40:21;23.77;;;21.42;;
15776;SDS011;7989;51.198;6.676;2024-01-07T02:42:49;21.83;;;19.63;;
15776;SDS011;7989;51.198;6.676;2024-01-07T02:45:16;22.53;;;20.30;;
15776;SDS011;7989;51.198;6.676;2024-01-07T02:47:43;20.92;;;18.92;;
15776;SDS011;7989;51.198;6.676;2024-01-07T02:50:09;21.60;;;19.42;;
15776;SDS011;7989;51.198;6.676;2024-01-07T02:52:36;20.05;;;18.08;;
15776;SDS011;7989;51.198;6.676;2024-01-07T02:55:03;21.27;;;18.77;;
15776;SDS011;7989;51.198;6.676;2024-01-07T02:57:30;21.55;;;19.45;;
15776;SDS011;7989;51.198;6.676;2024-01-07T02:59:58;20.67;;;18.60;;
15776;SDS011;7989;51.198;6.676;2024-01-07T03:02:25;21.98;;;19.83;;
15776;SDS011;7989;51.198;6.676;2024-01-07T03:04:52;21.17;;;19.08;;
15776;SDS011;7989;51.198;6.676;2024-01-07T03:07:19;21.77;;;19.60;;
15776;SDS011;7989;51.198;6.676;2024-01-07T03:09:45;21.57;;;19.43;;
15776;SDS011;7989;51.198;6.676;2024-01-07T03:12:14;22.08;;;19.80;;
15776;SDS011;7989;51.198;6.676;2024-01-07T03:14:41;22.52;;;20.30;;
15776;SDS011;7989;51.198;6.676;2024-01-07T03:17:10;23.05;;;20.65;;
15776;SDS011;7989;51.198;6.676;2024-01-07T03:19:37;25.67;;;22.05;;
15776;SDS011;7989;51.198;6.676;2024-01-07T03:22:04;28.23;;;23.13;;
15776;SDS011;7989;51.198;6.676;2024-01-07T03:24:32;25.70;;;22.83;;
15776;SDS011;7989;51.198;6.676;2024-01-07T03:26:59;27.30;;;23.35;;
15776;SDS011;7989;51.198;6.676;2024-01-07T03:29:25;27.38;;;24.30;;
15776;SDS011;7989;51.198;6.676;2024-01-07T03:31:52;28.58;;;25.00;;
15776;SDS011;7989;51.198;6.676;2024-01-07T03:34:20;29.55;;;24.05;;
15776;SDS011;7989;51.198;6.676;2024-01-07T03:36:47;29.42;;;25.48;;
15776;SDS011;7989;51.198;6.676;2024-01-07T03:39:14;30.75;;;25.98;;
15776;SDS011;7989;51.198;6.676;2024-01-07T03:41:41;30.33;;;26.47;;
15776;SDS011;7989;51.198;6.676;2024-01-07T03:44:07;27.92;;;25.05;;
15776;SDS011;7989;51.198;6.676;2024-01-07T03:46:34;28.43;;;23.13;;
15776;SDS011;7989;51.198;6.676;2024-01-07T03:49:01;27.27;;;23.88;;
15776;SDS011;7989;51.198;6.676;2024-01-07T03:51:29;25.27;;;22.40;;
15776;SDS011;7989;51.198;6.676;2024-01-07T03:53:56;23.80;;;21.38;;
15776;SDS011;7989;51.198;6.676;2024-01-07T03:56:22;24.05;;;21.55;;
15776;SDS011;7989;51.198;6.676;2024-01-07T03:58:49;24.52;;;21.92;;
15776;SDS011;7989;51.198;6.676;2024-01-07T04:01:16;24.52;;;21.98;;
15776;SDS011;7989;51.198;6.676;2024-01-07T04:03:43;26.38;;;23.17;;
15776;SDS011;7989;51.198;6.676;2024-01-07T04:06:10;23.60;;;21.20;;
15776;SDS011;7989;51.198;6.676;2024-01-07T04:08:38;25.13;;;22.45;;
15776;SDS011;7989;51.198;6.676;2024-01-07T04:11:05;28.40;;;25.50;;
15776;SDS011;7989;51.198;6.676;2024-01-07T04:13:32;26.42;;;22.55;;
15776;SDS011;7989;51.198;6.676;2024-01-07T04:15:58;24.60;;;21.85;;
15776;SDS011;7989;51.198;6.676;2024-01-07T04:18:25;23.77;;;21.27;;
15776;SDS011;7989;51.198;6.676;2024-01-07T04:20:52;21.67;;;19.57;;
15776;SDS011;7989;51.198;6.676;2024-01-07T04:23:19;20.50;;;18.60;;
15776;SDS011;7989;51.198;6.676;2024-01-07T04:25:47;22.90;;;20.67;;
15776;SDS011;7989;51.198;6.676;2024-01-07T04:28:14;23.48;;;21.10;;
15776;SDS011;7989;51.198;6.676;2024-01-07T04:30:41;22.65;;;20.45;;
15776;SDS011;7989;51.198;6.676;2024-01-07T04:33:07;24.60;;;22.10;;
15776;SDS011;7989;51.198;6.676;2024-01-07T04:35:34;23.83;;;21.43;;
15776;SDS011;7989;51.198;6.676;2024-01-07T04:38:01;23.30;;;20.90;;
15776;SDS011;7989;51.198;6.676;2024-01-07T04:40:28;23.40;;;21.02;;
15776;SDS011;7989;51.198;6.676;2024-01-07T04:42:56;25.10;;;22.52;;
15776;SDS011;7989;51.198;6.676;2024-01-07T04:45:23;23.87;;;21.67;;
15776;SDS011;7989;51.198;6.676;2024-01-07T04:47:50;24.23;;;21.85;;
15776;SDS011;7989;51.198;6.676;2024-01-07T04:50:17;23.92;;;21.67;;
15776;SDS011;7989;51.198;6.676;2024-01-07T04:52:44;24.77;;;22.27;;
15776;SDS011;7989;51.198;6.676;2024-01-07T04:55:11;23.80;;;21.40;;
15776;SDS011;7989;51.198;6.676;2024-01-07T04:57:38;25.27;;;22.87;;
15776;SDS011;7989;51.198;6.676;2024-01-07T05:00:07;23.20;;;20.97;;
15776;SDS011;7989;51.198;6.676;2024-01-07T05:02:34;23.83;;;21.52;;
15776;SDS011;7989;51.198;6.676;2024-01-07T05:05:02;23.33;;;21.15;;
15776;SDS011;7989;51.198;6.676;2024-01-07T05:07:29;23.52;;;21.30;;
15776;SDS011;7989;51.198;6.676;2024-01-07T05:09:56;24.37;;;21.87;;
15776;SDS011;7989;51.198;6.676;2024-01-07T05:12:23;26.73;;;24.02;;
15776;SDS011;7989;51.198;6.676;2024-01-07T05:14:50;24.50;;;22.00;;
15776;SDS011;7989;51.198;6.676;2024-01-07T05:17:18;25.77;;;23.20;;
15776;SDS011;7989;51.198;6.676;2024-01-07T05:19:45;26.77;;;24.23;;
15776;SDS011;7989;51.198;6.676;2024-01-07T05:22:12;26.85;;;24.25;;
15776;SDS011;7989;51.198;6.676;2024-01-07T05:24:39;28.03;;;25.23;;
15776;SDS011;7989;51.198;6.676;2024-01-07T05:27:06;26.93;;;24.33;;
15776;SDS011;7989;51.198;6.676;2024-01-07T05:29:32;24.17;;;21.83;;
15776;SDS011;7989;51.198;6.676;2024-01-07T05:31:59;26.15;;;23.75;;
15776;SDS011;7989;51.198;6.676;2024-01-07T05:34:29;27.23;;;24.65;;
15776;SDS011;7989;51.198;6.676;2024-01-07T05:36:56;24.70;;;22.33;;
15776;SDS011;7989;51.198;6.676;2024-01-07T05:39:22;25.13;;;22.73;;
15776;SDS011;7989;51.198;6.676;2024-01-07T05:41:49;24.88;;;22.48;;
15776;SDS011;7989;51.198;6.676;2024-01-07T05:44:16;25.20;;;22.70;;
15776;SDS011;7989;51.198;6.676;2024-01-07T05:46:43;24.47;;;22.17;;
15776;SDS011;7989;51.198;6.676;2024-01-07T05:49:10;24.33;;;22.02;;
15776;SDS011;7989;51.198;6.676;2024-01-07T05:51:39;24.40;;;22.13;;
15776;SDS011;7989;51.198;6.676;2024-01-07T05:54:06;24.10;;;21.70;;
15776;SDS011;7989;51.198;6.676;2024-01-07T05:56:37;23.37;;;20.97;;
15776;SDS011;7989;51.198;6.676;2024-01-07T05:59:05;23.33;;;21.15;;
15776;SDS011;7989;51.198;6.676;2024-01-07T06:01:31;23.10;;;20.77;;
15776;SDS011;7989;51.198;6.676;2024-01-07T06:03:58;23.00;;;20.83;;
15776;SDS011;7989;51.198;6.676;2024-01-07T06:06:25;21.77;;;19.73;;
15776;SDS011;7989;51.198;6.676;2024-01-07T06:08:53;21.05;;;18.85;;
15776;SDS011;7989;51.198;6.676;2024-01-07T06:11:20;20.30;;;18.27;;
15776;SDS011;7989;51.198;6.676;2024-01-07T06:13:47;21.00;;;19.00;;
15776;SDS011;7989;51.198;6.676;2024-01-07T06:16:14;20.52;;;18.42;;
15776;SDS011;7989;51.198;6.676;2024-01-07T06:18:40;20.23;;;18.33;;
15776;SDS011;7989;51.198;6.676;2024-01-07T06:21:07;19.67;;;17.70;;
15776;SDS011;7989;51.198;6.676;2024-01-07T06:23:34;20.40;;;18.38;;
15776;SDS011;7989;51.198;6.676;2024-01-07T06:26:04;22.13;;;19.30;;
15776;SDS011;7989;51.198;6.676;2024-01-07T06:28:31;22.33;;;19.97;;
15776;SDS011;7989;51.198;6.676;2024-01-07T06:30:58;23.20;;;20.80;;
15776;SDS011;7989;51.198;6.676;2024-01-07T06:33:25;22.93;;;20.40;;
15776;SDS011;7989;51.198;6.676;2024-01-07T06:35:51;23.95;;;21.52;;
15776;SDS011;7989;51.198;6.676;2024-01-07T06:38:18;24.90;;;22.23;;
15776;SDS011;7989;51.198;6.676;2024-01-07T06:40:45;24.10;;;21.70;;
15776;SDS011;7989;51.198;6.676;2024-01-07T06:43:13;23.87;;;21.33;;
15776;SDS011;7989;51.198;6.676;2024-01-07T06:45:40;26.27;;;23.43;;
15776;SDS011;7989;51.198;6.676;2024-01-07T06:48:07;23.03;;;20.57;;
15776;SDS011;7989;51.198;6.676;2024-01-07T06:50:34;24.37;;;21.80;;
15776;SDS011;7989;51.198;6.676;2024-01-07T06:53:01;23.83;;;21.30;;
15776;SDS011;7989;51.198;6.676;2024-01-07T06:55:28;24.37;;;21.87;;
15776;SDS011;7989;51.198;6.676;2024-01-07T06:57:54;23.90;;;21.70;;
15776;SDS011;7989;51.198;6.676;2024-01-07T07:00:23;23.37;;;20.90;;
15776;SDS011;7989;51.198;6.676;2024-01-07T07:02:49;23.87;;;21.37;;
15776;SDS011;7989;51.198;6.676;2024-01-07T07:05:16;21.97;;;19.70;;
15776;SDS011;7989;51.198;6.676;2024-01-07T07:07:43;22.77;;;20.37;;
15776;SDS011;7989;51.198;6.676;2024-01-07T07:10:10;22.20;;;19.90;;
15776;SDS011;7989;51.198;6.676;2024-01-07T07:12:37;21.13;;;18.93;;
15776;SDS011;7989;51.198;6.676;2024-01-07T07:15:04;22.13;;;19.93;;
15776;SDS011;7989;51.198;6.676;2024-01-07T07:17:33;20.50;;;18.50;;
15776;SDS011;7989;51.198;6.676;2024-01-07T07:20:00;21.73;;;19.63;;
15776;SDS011;7989;51.198;6.676;2024-01-07T07:22:26;21.13;;;19.03;;
15776;SDS011;7989;51.198;6.676;2024-01-07T07:24:53;20.83;;;18.83;;
15776;SDS011;7989;51.198;6.676;2024-01-07T07:27:21;22.67;;;20.27;;
15776;SDS011;7989;51.198;6.676;2024-01-07T07:29:48;22.65;;;19.45;;
15776;SDS011;7989;51.198;6.676;2024-01-07T07:32:14;20.63;;;18.53;;
15776;SDS011;7989;51.198;6.676;2024-01-07T07:34:43;21.15;;;18.95;;
15776;SDS011;7989;51.198;6.676;2024-01-07T07:37:09;22.20;;;19.60;;
15776;SDS011;7989;51.198;6.676;2024-01-07T07:39:36;22.77;;;20.53;;
15776;SDS011;7989;51.198;6.676;2024-01-07T07:42:03;22.07;;;19.87;;
15776;SDS011;7989;51.198;6.676;2024-01-07T07:44:30;23.00;;;20.70;;
15776;SDS011;7989;51.198;6.676;2024-01-07T07:46:57;24.97;;;22.57;;
15776;SDS011;7989;51.198;6.676;2024-01-07T07:49:24;24.03;;;20.03;;
15776;SDS011;7989;51.198;6.676;2024-01-07T07:51:52;22.47;;;20.20;;
15776;SDS011;7989;51.198;6.676;2024-01-07T07:54:19;25.13;;;22.60;;
15776;SDS011;7989;51.198;6.676;2024-01-07T07:56:45;25.57;;;22.77;;
15776;SDS011;7989;51.198;6.676;2024-01-07T07:59:13;25.23;;;21.83;;
15776;SDS011;7989;51.198;6.676;2024-01-07T08:01:39;25.20;;;22.55;;
15776;SDS011;7989;51.198;6.676;2024-01-07T08:04:06;26.20;;;23.40;;
15776;SDS011;7989;51.198;6.676;2024-01-07T08:06:35;25.00;;;22.30;;
15776;SDS011;7989;51.198;6.676;2024-01-07T08:09:03;25.50;;;22.63;;
15776;SDS011;7989;51.198;6.676;2024-01-07T08:11:30;24.97;;;22.27;;
15776;SDS011;7989;51.198;6.676;2024-01-07T08:13:57;28.07;;;23.97;;
15776;SDS011;7989;51.198;6.676;2024-01-07T08:16:24;25.80;;;22.30;;
15776;SDS011;7989;51.198;6.676;2024-01-07T08:18:50;26.00;;;22.60;;
15776;SDS011;7989;51.198;6.676;2024-01-07T08:21:18;25.03;;;22.33;;
15776;SDS011;7989;51.198;6.676;2024-01-07T08:23:45;27.90;;;22.83;;
15776;SDS011;7989;51.198;6.676;2024-01-07T08:26:14;28.67;;;24.52;;
15776;SDS011;7989;51.198;6.676;2024-01-07T08:28:44;26.30;;;23.03;;
15776;SDS011;7989;51.198;6.676;2024-01-07T08:31:11;27.13;;;24.20;;
15776;SDS011;7989;51.198;6.676;2024-01-07T08:33:38;26.47;;;23.57;;
15776;SDS011;7989;51.198;6.676;2024-01-07T08:36:05;28.60;;;23.30;;
15776;SDS011;7989;51.198;6.676;2024-01-07T08:38:32;26.20;;;23.40;;
15776;SDS011;7989;51.198;6.676;2024-01-07T08:40:59;26.73;;;22.43;;
15776;SDS011;7989;51.198;6.676;2024-01-07T08:43:27;26.00;;;23.17;;
15776;SDS011;7989;51.198;6.676;2024-01-07T08:45:54;24.30;;;21.80;;
15776;SDS011;7989;51.198;6.676;2024-01-07T08:48:20;24.13;;;21.53;;
15776;SDS011;7989;51.198;6.676;2024-01-07T08:50:47;23.03;;;20.67;;
15776;SDS011;7989;51.198;6.676;2024-01-07T08:53:15;24.13;;;21.53;;
15776;SDS011;7989;51.198;6.676;2024-01-07T08:55:41;22.07;;;19.77;;
15776;SDS011;7989;51.198;6.676;2024-01-07T08:58:08;22.27;;;19.87;;
15776;SDS011;7989;51.198;6.676;2024-01-07T09:00:37;19.97;;;17.97;;
15776;SDS011;7989;51.198;6.676;2024-01-07T09:03:03;18.63;;;16.73;;
15776;SDS011;7989;51.198;6.676;2024-01-07T09:05:31;17.13;;;15.50;;
15776;SDS011;7989;51.198;6.676;2024-01-07T09:07:58;17.63;;;15.83;;
15776;SDS011;7989;51.198;6.676;2024-01-07T09:10:25;16.87;;;15.37;;
15776;SDS011;7989;51.198;6.676;2024-01-07T09:12:52;17.47;;;15.77;;
15776;SDS011;7989;51.198;6.676;2024-01-07T09:15:19;16.23;;;14.63;;
15776;SDS011;7989;51.198;6.676;2024-01-07T09:17:48;15.30;;;13.83;;
15776;SDS011;7989;51.198;6.676;2024-01-07T09:20:15;16.57;;;14.87;;
15776;SDS011;7989;51.198;6.676;2024-01-07T09:22:41;16.47;;;14.77;;
15776;SDS011;7989;51.198;6.676;2024-01-07T09:25:09;16.30;;;14.70;;
15776;SDS011;7989;51.198;6.676;2024-01-07T09:27:36;16.43;;;14.93;;
15776;SDS011;7989;51.198;6.676;2024-01-07T09:30:03;16.40;;;14.80;;
15776;SDS011;7989;51.198;6.676;2024-01-07T09:32:30;16.67;;;14.80;;
15776;SDS011;7989;51.198;6.676;2024-01-07T09:34:59;15.37;;;13.77;;
15776;SDS011;7989;51.198;6.676;2024-01-07T09:37:25;16.90;;;14.80;;
15776;SDS011;7989;51.198;6.676;2024-01-07T09:39:52;16.17;;;14.57;;
15776;SDS011;7989;51.198;6.676;2024-01-07T09:42:19;15.23;;;13.63;;
15776;SDS011;7989;51.198;6.676;2024-01-07T09:44:46;14.70;;;13.20;;
15776;SDS011;7989;51.198;6.676;2024-01-07T09:47:17;15.43;;;14.03;;
15776;SDS011;7989;51.198;6.676;2024-01-07T09:49:48;14.47;;;13.07;;
15776;SDS011;7989;51.198;6.676;2024-01-07T09:52:17;14.47;;;13.13;;
15776;SDS011;7989;51.198;6.676;2024-01-07T09:54:51;14.77;;;13.27;;
15776;SDS011;7989;51.198;6.676;2024-01-07T09:57:25;16.73;;;15.13;;
15776;SDS011;7989;51.198;6.676;2024-01-07T09:59:52;15.87;;;14.37;;
15776;SDS011;7989;51.198;6.676;2024-01-07T10:02:19;15.63;;;14.13;;
15776;SDS011;7989;51.198;6.676;2024-01-07T10:04:47;15.17;;;13.70;;
15776;SDS011;7989;51.198;6.676;2024-01-07T10:07:14;15.73;;;14.27;;
15776;SDS011;7989;51.198;6.676;2024-01-07T10:09:43;15.73;;;14.13;;
15776;SDS011;7989;51.198;6.676;2024-01-07T10:12:10;16.23;;;14.63;;
15776;SDS011;7989;51.198;6.676;2024-01-07T10:14:37;17.60;;;16.00;;
15776;SDS011;7989;51.198;6.676;2024-01-07T10:17:11;17.57;;;15.87;;
15776;SDS011;7989;51.198;6.676;2024-01-07T10:19:41;17.37;;;15.77;;
15776;SDS011;7989;51.198;6.676;2024-01-07T10:22:09;17.70;;;16.00;;
15776;SDS011;7989;51.198;6.676;2024-01-07T10:24:40;15.27;;;13.83;;
15776;SDS011;7989;51.198;6.676;2024-01-07T10:27:08;15.97;;;14.27;;
15776;SDS011;7989;51.198;6.676;2024-01-07T10:29:35;17.27;;;15.67;;
15776;SDS011;7989;51.198;6.676;2024-01-07T10:32:03;17.67;;;15.63;;
15776;SDS011;7989;51.198;6.676;2024-01-07T10:34:31;16.00;;;14.50;;
15776;SDS011;7989;51.198;6.676;2024-01-07T10:36:58;15.57;;;14.07;;
15776;SDS011;7989;51.198;6.676;2024-01-07T10:39:25;16.20;;;14.47;;
15776;SDS011;7989;51.198;6.676;2024-01-07T10:41:54;16.57;;;14.73;;
15776;SDS011;7989;51.198;6.676;2024-01-07T10:44:22;15.40;;;13.90;;
15776;SDS011;7989;51.198;6.676;2024-01-07T10:46:51;16.07;;;14.40;;
15776;SDS011;7989;51.198;6.676;2024-01-07T10:49:20;18.13;;;16.33;;
15776;SDS011;7989;51.198;6.676;2024-01-07T10:51:50;15.13;;;13.70;;
15776;SDS011;7989;51.198;6.676;2024-01-07T10:54:28;15.33;;;13.93;;
15776;SDS011;7989;51.198;6.676;2024-01-07T10:56:57;14.77;;;13.27;;
15776;SDS011;7989;51.198;6.676;2024-01-07T10:59:26;14.33;;;13.03;;
15776;SDS011;7989;51.198;6.676;2024-01-07T11:01:53;13.67;;;12.53;;
15776;SDS011;7989;51.198;6.676;2024-01-07T11:04:20;13.43;;;12.13;;
15776;SDS011;7989;51.198;6.676;2024-01-07T11:06:57;12.60;;;11.40;;
15776;SDS011;7989;51.198;6.676;2024-01-07T11:09:33;13.23;;;11.97;;
15776;SDS011;7989;51.198;6.676;2024-01-07T11:12:07;13.47;;;12.27;;
15776;SDS011;7989;51.198;6.676;2024-01-07T11:14:34;12.97;;;11.63;;
15776;SDS011;7989;51.198;6.676;2024-01-07T11:17:02;11.33;;;10.33;;
15776;SDS011;7989;51.198;6.676;2024-01-07T11:19:29;12.63;;;11.43;;
15776;SDS011;7989;51.198;6.676;2024-01-07T11:24:48;12.07;;;10.87;;
15776;SDS011;7989;51.198;6.676;2024-01-07T11:27:21;13.17;;;11.97;;
15776;SDS011;7989;51.198;6.676;2024-01-07T11:29:54;12.30;;;11.20;;
15776;SDS011;7989;51.198;6.676;2024-01-07T11:32:22;13.10;;;11.73;;
15776;SDS011;7989;51.198;6.676;2024-01-07T11:34:51;12.27;;;11.13;;
15776;SDS011;7989;51.198;6.676;2024-01-07T11:37:19;11.93;;;10.63;;
15776;SDS011;7989;51.198;6.676;2024-01-07T11:39:47;10.93;;;9.83;;
15776;SDS011;7989;51.198;6.676;2024-01-07T11:42:14;11.23;;;10.07;;
15776;SDS011;7989;51.198;6.676;2024-01-07T11:44:46;10.83;;;9.80;;
15776;SDS011;7989;51.198;6.676;2024-01-07T11:47:14;14.03;;;12.63;;
15776;SDS011;7989;51.198;6.676;2024-01-07T11:49:41;14.27;;;12.80;;
15776;SDS011;7989;51.198;6.676;2024-01-07T11:52:08;15.50;;;13.80;;
15776;SDS011;7989;51.198;6.676;2024-01-07T11:54:35;14.20;;;12.80;;
15776;SDS011;7989;51.198;6.676;2024-01-07T11:57:02;15.17;;;13.77;;
15776;SDS011;7989;51.198;6.676;2024-01-07T11:59:30;15.30;;;13.97;;
15776;SDS011;7989;51.198;6.676;2024-01-07T12:01:58;15.23;;;13.80;;
15776;SDS011;7989;51.198;6.676;2024-01-07T12:04:26;12.53;;;11.27;;
15776;SDS011;7989;51.198;6.676;2024-01-07T12:06:53;14.63;;;13.13;;
15776;SDS011;7989;51.198;6.676;2024-01-07T12:09:20;13.80;;;12.40;;
15776;SDS011;7989;51.198;6.676;2024-01-07T12:11:47;14.30;;;11.73;;
15776;SDS011;7989;51.198;6.676;2024-01-07T12:14:14;12.83;;;11.63;;
15776;SDS011;7989;51.198;6.676;2024-01-07T12:16:41;12.53;;;11.33;;
15776;SDS011;7989;51.198;6.676;2024-01-07T12:19:09;11.20;;;10.10;;
15776;SDS011;7989;51.198;6.676;2024-01-07T12:21:36;12.20;;;10.30;;
15776;SDS011;7989;51.198;6.676;2024-01-07T12:24:05;13.60;;;9.60;;
15776;SDS011;7989;51.198;6.676;2024-01-07T12:26:32;11.40;;;9.33;;
15776;SDS011;7989;51.198;6.676;2024-01-07T12:28:59;9.80;;;8.90;;
15776;SDS011;7989;51.198;6.676;2024-01-07T12:31:28;10.67;;;9.63;;
15776;SDS011;7989;51.198;6.676;2024-01-07T12:33:56;9.87;;;8.87;;
15776;SDS011;7989;51.198;6.676;2024-01-07T12:36:25;11.07;;;9.83;;
15776;SDS011;7989;51.198;6.676;2024-01-07T12:38:52;9.10;;;8.20;;
15776;SDS011;7989;51.198;6.676;2024-01-07T12:41:20;10.27;;;8.20;;
15776;SDS011;7989;51.198;6.676;2024-01-07T12:43:47;8.07;;;7.27;;
15776;SDS011;7989;51.198;6.676;2024-01-07T12:46:14;8.43;;;7.53;;
15776;SDS011;7989;51.198;6.676;2024-01-07T12:48:41;7.40;;;6.60;;
15776;SDS011;7989;51.198;6.676;2024-01-07T12:51:08;9.23;;;8.30;;
15776;SDS011;7989;51.198;6.676;2024-01-07T12:53:36;8.37;;;7.57;;
15776;SDS011;7989;51.198;6.676;2024-01-07T12:56:03;10.40;;;8.37;;
15776;SDS011;7989;51.198;6.676;2024-01-07T12:58:31;8.57;;;7.70;;
15776;SDS011;7989;51.198;6.676;2024-01-07T13:00:58;8.70;;;7.80;;
15776;SDS011;7989;51.198;6.676;2024-01-07T13:03:25;10.03;;;7.00;;
15776;SDS011;7989;51.198;6.676;2024-01-07T13:05:52;7.63;;;5.93;;
15776;SDS011;7989;51.198;6.676;2024-01-07T13:08:19;6.60;;;5.90;;
15776;SDS011;7989;51.198;6.676;2024-01-07T13:10:48;6.03;;;4.80;;
15776;SDS011;7989;51.198;6.676;2024-01-07T13:13:15;6.83;;;5.73;;
15776;SDS011;7989;51.198;6.676;2024-01-07T13:15:42;6.10;;;5.50;;
15776;SDS011;7989;51.198;6.676;2024-01-07T13:18:09;6.90;;;5.20;;
15776;SDS011;7989;51.198;6.676;2024-01-07T13:20:38;5.20;;;4.67;;
15776;SDS011;7989;51.198;6.676;2024-01-07T13:23:05;4.97;;;4.47;;
15776;SDS011;7989;51.198;6.676;2024-01-07T13:25:32;6.10;;;4.87;;
15776;SDS011;7989;51.198;6.676;2024-01-07T13:28:00;4.13;;;3.70;;
15776;SDS011;7989;51.198;6.676;2024-01-07T13:30:27;5.57;;;4.40;;
15776;SDS011;7989;51.198;6.676;2024-01-07T13:32:54;5.90;;;4.60;;
15776;SDS011;7989;51.198;6.676;2024-01-07T13:35:22;5.07;;;4.37;;
15776;SDS011;7989;51.198;6.676;2024-01-07T13:37:49;6.63;;;4.23;;
15776;SDS011;7989;51.198;6.676;2024-01-07T13:40:19;6.90;;;4.40;;
15776;SDS011;7989;51.198;6.676;2024-01-07T13:42:46;4.70;;;4.30;;
15776;SDS011;7989;51.198;6.676;2024-01-07T13:45:17;4.20;;;3.80;;
15776;SDS011;7989;51.198;6.676;2024-01-07T13:47:45;5.33;;;4.67;;
15776;SDS011;7989;51.198;6.676;2024-01-07T13:50:13;5.00;;;4.00;;
15776;SDS011;7989;51.198;6.676;2024-01-07T13:52:41;4.60;;;4.20;;
15776;SDS011;7989;51.198;6.676;2024-01-07T13:55:08;5.30;;;4.80;;
15776;SDS011;7989;51.198;6.676;2024-01-07T13:57:35;6.45;;;5.07;;
15776;SDS011;7989;51.198;6.676;2024-01-07T14:00:02;5.97;;;4.50;;
15776;SDS011;7989;51.198;6.676;2024-01-07T14:02:36;4.97;;;4.10;;
15776;SDS011;7989;51.198;6.676;2024-01-07T14:05:04;4.30;;;3.90;;
15776;SDS011;7989;51.198;6.676;2024-01-07T14:07:33;4.23;;;3.93;;
15776;SDS011;7989;51.198;6.676;2024-01-07T14:10:00;4.30;;;3.90;;
15776;SDS011;7989;51.198;6.676;2024-01-07T14:12:28;5.03;;;4.53;;
15776;SDS011;7989;51.198;6.676;2024-01-07T14:14:55;4.53;;;4.00;;
15776;SDS011;7989;51.198;6.676;2024-01-07T14:17:22;7.00;;;3.60;;
15776;SDS011;7989;51.198;6.676;2024-01-07T14:19:50;4.33;;;3.40;;
15776;SDS011;7989;51.198;6.676;2024-01-07T14:22:18;4.37;;;3.90;;
15776;SDS011;7989;51.198;6.676;2024-01-07T14:24:45;4.17;;;3.40;;
15776;SDS011;7989;51.198;6.676;2024-01-07T14:27:12;4.67;;;3.70;;
15776;SDS011;7989;51.198;6.676;2024-01-07T14:29:40;3.93;;;3.47;;
15776;SDS011;7989;51.198;6.676;2024-01-07T14:32:06;5.13;;;3.47;;
15776;SDS011;7989;51.198;6.676;2024-01-07T14:34:33;6.93;;;3.80;;
15776;SDS011;7989;51.198;6.676;2024-01-07T14:37:01;3.43;;;3.13;;
15776;SDS011;7989;51.198;6.676;2024-01-07T14:39:28;4.20;;;3.60;;
15776;SDS011;7989;51.198;6.676;2024-01-07T14:41:55;4.17;;;3.00;;